Venus Halo — HOHJ — position and weather

sailwx.info

Track history (hours):
 
Tides and Currents Weather Stations Pressure Air Temp Water Temp Dewpoint Dewpoint Depression Visibility Wind Speed Wind Dir Waves Ship Positions

Venus Halo

Last reported at 2018-Apr-04 21:40 UTC. Time now 2018-Apr-21 15:37 UTC.
Position S 28°37' E 033°17'.
Warning: this ship's position is 16 days out of date.

Length 190 m; draft 9.5 m.

Type: Cargo ship. MMSI: 373362000.

Date/timePositionNaut miles runAvg speedWind from/ knotsBaromVisibWave heightAir tempDewpointWater temp
2018-Apr-04 21:40S 28°37' E 033°17'411.1
2018-Apr-04 21:18S 28°41' E 033°14'311.2
2018-Apr-04 21:01S 28°43' E 033°12'611.5
2018-Apr-04 20:29S 28°48' E 033°07'1111.3
2018-Apr-04 19:30S 28°56' E 032°59'511.1
2018-Apr-04 19:01S 29°00' E 032°55'611.1
2018-Apr-04 18:30S 29°05' E 032°51'611.2
2018-Apr-04 18:00S 29°09' E 032°47'1011.1
2018-Apr-04 17:08S 29°17' E 032°40'211.4
2018-Apr-04 17:00S 29°18' E 032°39'611.3
2018-Apr-04 16:29S 29°22' E 032°35'611.3
2018-Apr-04 15:58S 29°27' E 032°30'1211.7
2018-Apr-04 14:56S 29°36' E 032°21'511.6
2018-Apr-04 14:31S 29°40' E 032°18'611.5
2018-Apr-04 14:00S 29°45' E 032°14'711.3
2018-Apr-04 13:23S 29°50' E 032°09'411.3
2018-Apr-04 13:00S 29°53' E 032°05'611.4
2018-Apr-04 12:29S 29°58' E 032°01'511.4
2018-Apr-04 12:01S 30°02' E 031°57'611.2
2018-Apr-04 11:29S 30°07' E 031°53'511.0
2018-Apr-04 11:00S 30°11' E 031°49'510.8
2018-Apr-04 10:30S 30°15' E 031°46'510.5
2018-Apr-04 09:59S 30°20' E 031°42'510.2
2018-Apr-04 09:31S 30°23' E 031°38'5 9.8
2018-Apr-04 09:00S 30°27' E 031°34'6 9.7
2018-Apr-04 08:26S 30°31' E 031°30'4 9.1
2018-Apr-04 08:01S 30°34' E 031°28'5 8.7
2018-Apr-04 07:25S 30°38' E 031°24'4 8.7
2018-Apr-04 07:00S 30°41' E 031°21'5 9.1
2018-Apr-04 06:29S 30°44' E 031°17'5 9.3
2018-Apr-04 05:59S 30°48' E 031°14'810.1
2018-Apr-04 05:09S 30°55' E 031°08'410.6
2018-Apr-04 04:49S 30°57' E 031°05'  
Track history (hours):
 
Tides and Currents Weather Stations Pressure Air Temp Water Temp Dewpoint Dewpoint Depression Visibility Wind Speed Wind Dir Waves Ship Positions

Venus Halo

Last reported at 2018-Apr-04 21:40 UTC. Time now 2018-Apr-21 15:37 UTC.
Position S 28°37' E 033°17'.
Warning: this ship's position is 16 days out of date.

Length 190 m; draft 9.5 m.

Type: Cargo ship. MMSI: 373362000.

Date/timePositionNaut miles runAvg speedWind from/ knotsBaromVisibWave heightAir tempDewpointWater temp
2018-Apr-04 21:40S 28°37' E 033°17'411.1
2018-Apr-04 21:18S 28°41' E 033°14'311.2
2018-Apr-04 21:01S 28°43' E 033°12'611.5
2018-Apr-04 20:29S 28°48' E 033°07'1111.3
2018-Apr-04 19:30S 28°56' E 032°59'511.1
2018-Apr-04 19:01S 29°00' E 032°55'611.1
2018-Apr-04 18:30S 29°05' E 032°51'611.2
2018-Apr-04 18:00S 29°09' E 032°47'1011.1
2018-Apr-04 17:08S 29°17' E 032°40'211.4
2018-Apr-04 17:00S 29°18' E 032°39'611.3
2018-Apr-04 16:29S 29°22' E 032°35'611.3
2018-Apr-04 15:58S 29°27' E 032°30'1211.7
2018-Apr-04 14:56S 29°36' E 032°21'511.6
2018-Apr-04 14:31S 29°40' E 032°18'611.5
2018-Apr-04 14:00S 29°45' E 032°14'711.3
2018-Apr-04 13:23S 29°50' E 032°09'411.3
2018-Apr-04 13:00S 29°53' E 032°05'611.4
2018-Apr-04 12:29S 29°58' E 032°01'511.4
2018-Apr-04 12:01S 30°02' E 031°57'611.2
2018-Apr-04 11:29S 30°07' E 031°53'511.0
2018-Apr-04 11:00S 30°11' E 031°49'510.8
2018-Apr-04 10:30S 30°15' E 031°46'510.5
2018-Apr-04 09:59S 30°20' E 031°42'510.2
2018-Apr-04 09:31S 30°23' E 031°38'5 9.8
2018-Apr-04 09:00S 30°27' E 031°34'6 9.7
2018-Apr-04 08:26S 30°31' E 031°30'4 9.1
2018-Apr-04 08:01S 30°34' E 031°28'5 8.7
2018-Apr-04 07:25S 30°38' E 031°24'4 8.7
2018-Apr-04 07:00S 30°41' E 031°21'5 9.1
2018-Apr-04 06:29S 30°44' E 031°17'5 9.3
2018-Apr-04 05:59S 30°48' E 031°14'810.1
2018-Apr-04 05:09S 30°55' E 031°08'410.6
2018-Apr-04 04:49S 30°57' E 031°05'  

Dump ship's entire track history